Time;durP1;ratioP1;P1;durP2;ratioP2;P2;SDS_P1;SDS_P2;PMS_P1;PMS_P2;Temp;Humidity;BMP_temperature;BMP_pressure;BME280_temperature;BME280_humidity;BME280_pressure;Samples;Min_cycle;Max_cycle;Signal;HPM_P1;HPM_P2
2023/06/27 00:00:10;;;;;;;3.35;1.75;;;;;;;;;;5091104;28;20509;-67
2023/06/27 00:02:35;;;;;;;4.47;2.22;;;;;;;;;;5089720;28;20110;-67
2023/06/27 00:05:00;;;;;;;7.03;2.60;;;;;;;;;;5091227;28;20122;-66
2023/06/27 00:07:27;;;;;;;4.32;1.85;;;;;;;;;;5090636;28;20274;-66
2023/06/27 00:09:53;;;;;;;6.78;2.38;;;;;;;;;;5089133;28;20040;-67
2023/06/27 00:12:18;;;;;;;3.63;1.65;;;;;;;;;;5078441;28;20051;-66
2023/06/27 00:14:44;;;;;;;5.25;2.00;;;;;;;;;;5090917;28;20528;-67
2023/06/27 00:17:12;;;;;;;8.75;2.13;;;;;;;;;;5090660;28;20024;-67
2023/06/27 00:19:37;;;;;;;3.40;1.83;;;;;;;;;;5089955;28;20027;-66
2023/06/27 00:22:09;;;;;;;4.95;2.42;;;;;;;;;;5085823;28;20036;-66
2023/06/27 00:24:34;;;;;;;4.65;2.08;;;;;;;;;;5072715;28;20043;-67
2023/06/27 00:26:59;;;;;;;4.40;2.42;;;;;;;;;;5089617;28;20028;-66
2023/06/27 00:29:26;;;;;;;3.03;1.67;;;;;;;;;;5086580;28;20107;-67
2023/06/27 00:31:51;;;;;;;4.90;2.10;;;;;;;;;;5090175;28;20281;-67
2023/06/27 00:34:16;;;;;;;4.18;1.88;;;;;;;;;;5090527;28;20027;-67
2023/06/27 00:36:41;;;;;;;7.80;2.17;;;;;;;;;;5090131;28;20016;-67
2023/06/27 00:39:07;;;;;;;6.40;1.75;;;;;;;;;;5090589;28;21637;-67
2023/06/27 00:41:32;;;;;;;5.00;1.95;;;;;;;;;;5084868;28;20020;-67
2023/06/27 00:43:57;;;;;;;3.20;1.70;;;;;;;;;;5081487;28;20026;-67
2023/06/27 00:46:30;;;;;;;5.45;2.25;;;;;;;;;;5089516;28;20340;-67
2023/06/27 00:48:55;;;;;;;3.05;1.63;;;;;;;;;;5090226;28;20024;-67
2023/06/27 00:51:21;;;;;;;3.80;1.80;;;;;;;;;;5089596;28;20441;-67
2023/06/27 00:53:46;;;;;;;6.78;2.22;;;;;;;;;;5090554;28;20682;-66
2023/06/27 00:56:11;;;;;;;4.47;1.98;;;;;;;;;;5090725;28;20539;-66
2023/06/27 00:58:37;;;;;;;3.83;1.90;;;;;;;;;;5093570;28;20115;-66
2023/06/27 01:01:03;;;;;;;7.33;1.93;;;;;;;;;;5092802;28;20024;-66
2023/06/27 01:03:32;;;;;;;4.72;2.08;;;;;;;;;;5093643;28;20744;-66
2023/06/27 01:05:58;;;;;;;5.90;2.40;;;;;;;;;;5094418;28;20035;-67
2023/06/27 01:08:29;;;;;;;4.10;1.83;;;;;;;;;;5093703;28;20016;-66
2023/06/27 01:11:03;;;;;;;10.55;2.78;;;;;;;;;;5075749;28;20035;-66
2023/06/27 01:13:51;;;;;;;15.43;2.67;;;;;;;;;;5081287;28;20536;-66
2023/06/27 01:16:19;;;;;;;4.55;2.75;;;;;;;;;;5086740;28;20039;-66
2023/06/27 01:18:46;;;;;;;4.50;2.08;;;;;;;;;;5093027;28;20036;-67
2023/06/27 01:21:12;;;;;;;7.88;2.45;;;;;;;;;;5092461;28;20085;-67
2023/06/27 01:23:58;;;;;;;6.03;2.53;;;;;;;;;;5093648;28;20063;-67
2023/06/27 01:26:23;;;;;;;11.43;2.70;;;;;;;;;;5092825;28;20463;-67
2023/06/27 01:28:49;;;;;;;6.88;3.03;;;;;;;;;;5093399;28;20031;-66
2023/06/27 01:31:23;;;;;;;9.05;2.65;;;;;;;;;;5093118;28;20428;-67
2023/06/27 01:33:48;;;;;;;;;;;;;;;;;;5093042;28;20034;-67
2023/06/27 01:36:17;;;;;;;4.00;2.40;;;;;;;;;;5092232;28;19912;-67
2023/06/27 01:38:42;;;;;;;6.43;2.70;;;;;;;;;;5092780;28;20024;-67
2023/06/27 01:41:09;;;;;;;7.20;2.05;;;;;;;;;;5091129;28;20042;-67
2023/06/27 01:43:35;;;;;;;5.88;2.47;;;;;;;;;;5082179;28;20026;-67
2023/06/27 01:46:00;;;;;;;6.05;2.92;;;;;;;;;;5092254;28;20245;-67
2023/06/27 01:48:26;;;;;;;11.38;3.00;;;;;;;;;;5093796;28;20040;-67
2023/06/27 01:50:57;;;;;;;5.72;2.78;;;;;;;;;;5092934;28;20051;-67
2023/06/27 01:53:22;;;;;;;7.90;2.80;;;;;;;;;;5093300;28;20532;-67
2023/06/27 01:55:47;;;;;;;8.83;2.83;;;;;;;;;;5091765;28;20012;-66
2023/06/27 01:58:12;;;;;;;26.58;3.47;;;;;;;;;;5092464;28;20776;-66
2023/06/27 02:00:38;;;;;;;5.38;2.45;;;;;;;;;;5092558;28;20063;-67
2023/06/27 02:03:03;;;;;;;3.97;2.50;;;;;;;;;;5092788;28;20026;-66
2023/06/27 02:05:28;;;;;;;6.07;3.20;;;;;;;;;;5092118;28;20288;-67
2023/06/27 02:07:53;;;;;;;8.32;2.75;;;;;;;;;;5091528;28;20418;-66
2023/06/27 02:10:19;;;;;;;6.17;3.10;;;;;;;;;;5091587;28;20093;-66
2023/06/27 02:12:44;;;;;;;5.82;2.85;;;;;;;;;;5092300;28;20293;-67
2023/06/27 02:15:09;;;;;;;12.52;3.55;;;;;;;;;;5073893;28;20077;-67
2023/06/27 02:17:35;;;;;;;6.90;2.55;;;;;;;;;;5092952;28;20459;-67
2023/06/27 02:20:00;;;;;;;9.65;3.40;;;;;;;;;;5092308;28;20097;-66
2023/06/27 02:22:25;;;;;;;8.65;3.05;;;;;;;;;;5092336;28;20705;-67
2023/06/27 02:24:50;;;;;;;5.72;3.05;;;;;;;;;;5092594;28;20024;-66
2023/06/27 02:27:16;;;;;;;9.53;3.10;;;;;;;;;;5092151;28;20436;-67
2023/06/27 02:29:41;;;;;;;8.80;2.55;;;;;;;;;;5091761;28;20324;-67
2023/06/27 02:32:06;;;;;;;7.70;2.87;;;;;;;;;;5092260;28;20032;-67
2023/06/27 02:34:32;;;;;;;8.23;3.33;;;;;;;;;;5092464;28;20282;-67
2023/06/27 02:36:57;;;;;;;6.95;3.22;;;;;;;;;;5078810;28;20061;-67
2023/06/27 02:39:22;;;;;;;10.23;3.10;;;;;;;;;;5091404;28;20032;-67
2023/06/27 02:41:47;;;;;;;8.93;3.73;;;;;;;;;;5084051;28;20662;-67
2023/06/27 02:44:13;;;;;;;7.07;2.80;;;;;;;;;;5085923;28;20288;-67
2023/06/27 02:46:38;;;;;;;9.25;3.60;;;;;;;;;;5092148;28;20050;-67
2023/06/27 02:49:03;;;;;;;7.90;3.40;;;;;;;;;;5091703;28;20548;-67
2023/06/27 02:51:28;;;;;;;13.20;4.00;;;;;;;;;;5091491;28;20831;-66
2023/06/27 02:53:53;;;;;;;8.93;4.22;;;;;;;;;;5083236;28;20032;-66
2023/06/27 02:56:19;;;;;;;7.93;4.40;;;;;;;;;;5090778;28;20039;-67
2023/06/27 02:58:44;;;;;;;10.40;4.23;;;;;;;;;;5091329;28;20267;-67
2023/06/27 03:01:09;;;;;;;11.10;4.70;;;;;;;;;;5091525;28;20324;-67
2023/06/27 03:03:34;;;;;;;7.93;3.92;;;;;;;;;;5091281;28;20297;-66
2023/06/27 03:06:08;;;;;;;9.15;3.88;;;;;;;;;;5086530;28;20446;-67
2023/06/27 03:08:33;;;;;;;13.30;3.97;;;;;;;;;;5081316;28;20126;-67
2023/06/27 03:10:59;;;;;;;10.35;3.92;;;;;;;;;;5079192;28;20052;-67
2023/06/27 03:13:24;;;;;;;7.45;3.90;;;;;;;;;;5090887;28;20016;-67
2023/06/27 03:15:49;;;;;;;10.90;4.38;;;;;;;;;;5086081;28;20016;-67
2023/06/27 03:18:14;;;;;;;9.93;2.97;;;;;;;;;;5091408;28;20474;-67
2023/06/27 03:20:40;;;;;;;7.27;3.50;;;;;;;;;;5091342;28;20827;-67
2023/06/27 03:23:05;;;;;;;11.13;4.10;;;;;;;;;;5085215;28;20278;-67
2023/06/27 03:25:30;;;;;;;10.55;4.53;;;;;;;;;;5091201;28;20032;-67
2023/06/27 03:27:55;;;;;;;14.10;3.72;;;;;;;;;;5090925;28;20095;-68
2023/06/27 03:30:21;;;;;;;10.60;4.40;;;;;;;;;;5091662;28;20028;-67
2023/06/27 03:32:46;;;;;;;10.30;3.67;;;;;;;;;;5091439;28;20367;-67
2023/06/27 03:35:11;;;;;;;8.63;3.88;;;;;;;;;;5091866;28;20028;-67
2023/06/27 03:37:36;;;;;;;12.87;3.83;;;;;;;;;;5087993;28;20038;-66
2023/06/27 03:40:03;;;;;;;8.77;3.63;;;;;;;;;;5090951;28;20369;-67
2023/06/27 03:42:28;;;;;;;10.65;3.67;;;;;;;;;;5080585;28;20036;-67
2023/06/27 03:44:54;;;;;;;7.93;3.73;;;;;;;;;;5091238;28;20411;-67
2023/06/27 03:47:19;;;;;;;7.57;3.67;;;;;;;;;;5078105;28;20283;-67
2023/06/27 03:49:44;;;;;;;21.67;4.45;;;;;;;;;;5090069;28;20038;-67
2023/06/27 03:52:10;;;;;;;8.48;4.30;;;;;;;;;;5091124;28;20031;-67
2023/06/27 03:54:35;;;;;;;14.45;4.20;;;;;;;;;;5077660;28;20048;-67
2023/06/27 03:57:01;;;;;;;8.43;3.97;;;;;;;;;;5091318;28;20081;-66
2023/06/27 03:59:26;;;;;;;14.10;4.05;;;;;;;;;;5090188;28;20542;-67
2023/06/27 04:01:51;;;;;;;12.53;3.77;;;;;;;;;;5091263;28;20509;-67
2023/06/27 04:04:16;;;;;;;8.63;4.30;;;;;;;;;;5090694;28;20660;-67
2023/06/27 04:06:41;;;;;;;9.63;4.45;;;;;;;;;;5090439;28;20317;-67
2023/06/27 04:09:07;;;;;;;16.23;3.87;;;;;;;;;;5090540;28;20020;-67
2023/06/27 04:11:32;;;;;;;12.23;4.30;;;;;;;;;;5090301;28;20262;-68
2023/06/27 04:13:59;;;;;;;11.40;4.60;;;;;;;;;;5089101;28;20024;-67
2023/06/27 04:16:24;;;;;;;11.10;4.50;;;;;;;;;;5090128;28;20027;-67
2023/06/27 04:18:49;;;;;;;13.35;4.28;;;;;;;;;;5091291;28;20028;-67
2023/06/27 04:21:15;;;;;;;8.50;4.03;;;;;;;;;;5090435;28;20395;-67
2023/06/27 04:23:40;;;;;;;12.03;4.87;;;;;;;;;;5090503;28;20020;-67
2023/06/27 04:26:07;;;;;;;9.40;4.00;;;;;;;;;;5090826;28;20384;-67
2023/06/27 04:28:33;;;;;;;13.13;4.10;;;;;;;;;;5089767;28;20319;-67
2023/06/27 04:30:58;;;;;;;10.43;4.25;;;;;;;;;;5092552;28;20027;-66
2023/06/27 04:33:23;;;;;;;9.65;3.63;;;;;;;;;;5067318;28;20028;-67
2023/06/27 04:35:49;;;;;;;7.50;3.88;;;;;;;;;;5093919;28;20039;-67
2023/06/27 04:38:14;;;;;;;13.10;4.15;;;;;;;;;;5094180;28;20020;-66
2023/06/27 04:40:41;;;;;;;19.60;4.80;;;;;;;;;;5092556;28;20477;-66
2023/06/27 04:43:06;;;;;;;10.48;4.50;;;;;;;;;;5094250;28;20327;-66
2023/06/27 04:45:32;;;;;;;9.52;4.47;;;;;;;;;;5092880;28;20036;-66
2023/06/27 04:47:57;;;;;;;13.03;5.07;;;;;;;;;;5093393;28;20032;-67
2023/06/27 04:50:22;;;;;;;15.52;4.78;;;;;;;;;;5065444;28;20327;-67
2023/06/27 04:52:47;;;;;;;7.50;4.47;;;;;;;;;;5091353;28;20475;-67
2023/06/27 04:55:13;;;;;;;9.90;4.72;;;;;;;;;;5093769;28;20677;-66
2023/06/27 04:57:38;;;;;;;9.85;4.40;;;;;;;;;;5093057;28;20080;-66
2023/06/27 05:00:05;;;;;;;9.27;4.32;;;;;;;;;;5093927;28;20016;-66
2023/06/27 05:02:31;;;;;;;22.50;5.18;;;;;;;;;;5092615;28;20020;-66
2023/06/27 05:04:56;;;;;;;9.83;4.70;;;;;;;;;;5092421;28;20020;-67
2023/06/27 05:07:21;;;;;;;12.43;5.07;;;;;;;;;;5093600;28;20266;-66
2023/06/27 05:09:46;;;;;;;10.95;4.72;;;;;;;;;;5094495;28;20274;-66
2023/06/27 05:12:12;;;;;;;14.00;4.70;;;;;;;;;;5092823;28;20024;-67
2023/06/27 05:14:37;;;;;;;14.48;4.40;;;;;;;;;;5088900;28;20024;-66
2023/06/27 05:17:02;;;;;;;11.33;5.27;;;;;;;;;;5089713;28;20462;-66
2023/06/27 05:19:27;;;;;;;8.50;4.25;;;;;;;;;;5093212;28;20667;-66
2023/06/27 05:21:53;;;;;;;15.45;5.60;;;;;;;;;;5089737;28;20036;-66
2023/06/27 05:24:18;;;;;;;10.20;4.67;;;;;;;;;;5091776;28;20640;-65
2023/06/27 05:26:43;;;;;;;13.43;4.30;;;;;;;;;;5092789;28;20360;-66
2023/06/27 05:29:08;;;;;;;11.93;3.73;;;;;;;;;;5093161;28;20301;-66
2023/06/27 05:31:33;;;;;;;10.02;3.90;;;;;;;;;;5092508;28;20270;-66
2023/06/27 05:33:59;;;;;;;15.83;4.67;;;;;;;;;;5092390;28;20016;-66
2023/06/27 05:36:24;;;;;;;8.73;3.67;;;;;;;;;;5092674;28;20306;-67
2023/06/27 05:38:49;;;;;;;18.20;5.20;;;;;;;;;;5090980;28;20024;-66
2023/06/27 05:41:18;;;;;;;10.20;3.47;;;;;;;;;;5081345;28;20278;-67
2023/06/27 05:43:43;;;;;;;14.45;4.95;;;;;;;;;;5090744;28;20788;-66
2023/06/27 05:46:08;;;;;;;12.38;3.85;;;;;;;;;;5092446;28;20111;-66
2023/06/27 05:48:34;;;;;;;13.80;4.57;;;;;;;;;;5092292;28;20154;-66
2023/06/27 05:50:59;;;;;;;12.00;4.75;;;;;;;;;;5092135;28;20310;-66
2023/06/27 05:53:24;;;;;;;10.70;4.43;;;;;;;;;;5091893;28;20054;-66
2023/06/27 05:55:49;;;;;;;9.70;4.33;;;;;;;;;;5090263;28;20048;-66
2023/06/27 05:58:14;;;;;;;11.55;5.05;;;;;;;;;;5093419;28;20265;-67
2023/06/27 06:00:40;;;;;;;9.67;4.33;;;;;;;;;;5091141;28;20028;-67
2023/06/27 06:03:05;;;;;;;10.05;4.28;;;;;;;;;;5085726;28;20359;-66
2023/06/27 06:05:30;;;;;;;13.00;5.03;;;;;;;;;;5092014;28;20067;-67
2023/06/27 06:07:55;;;;;;;12.88;4.97;;;;;;;;;;5093488;28;20450;-66
2023/06/27 06:10:21;;;;;;;13.03;4.67;;;;;;;;;;5093220;28;20025;-66
2023/06/27 06:12:47;;;;;;;15.48;4.72;;;;;;;;;;5092469;28;20282;-66
2023/06/27 06:15:12;;;;;;;11.65;4.53;;;;;;;;;;5091962;28;20035;-67
2023/06/27 06:17:38;;;;;;;10.60;4.57;;;;;;;;;;5092203;28;20036;-66
2023/06/27 06:20:09;;;;;;;17.45;4.50;;;;;;;;;;5092437;28;20039;-66
2023/06/27 06:22:35;;;;;;;13.18;5.22;;;;;;;;;;5092094;28;20433;-67
2023/06/27 06:25:00;;;;;;;8.10;4.22;;;;;;;;;;5092175;28;20078;-67
2023/06/27 06:27:26;;;;;;;9.75;4.13;;;;;;;;;;5091355;28;20024;-67
2023/06/27 06:29:51;;;;;;;7.72;4.15;;;;;;;;;;5091074;28;20508;-67
2023/06/27 06:32:16;;;;;;;8.00;3.80;;;;;;;;;;5091983;28;20019;-67
2023/06/27 06:34:41;;;;;;;17.27;5.27;;;;;;;;;;5092033;28;20054;-66
2023/06/27 06:37:07;;;;;;;9.30;4.23;;;;;;;;;;5091532;28;20266;-67
2023/06/27 06:39:33;;;;;;;17.83;4.53;;;;;;;;;;5092407;28;20286;-67
2023/06/27 06:41:58;;;;;;;23.83;5.13;;;;;;;;;;5091392;28;20024;-67
2023/06/27 06:44:23;;;;;;;12.43;4.07;;;;;;;;;;5084080;28;20463;-66
2023/06/27 06:46:49;;;;;;;17.38;4.22;;;;;;;;;;5083892;28;20024;-67
2023/06/27 06:49:14;;;;;;;10.68;4.40;;;;;;;;;;5091900;28;20031;-67
2023/06/27 06:51:39;;;;;;;10.88;4.53;;;;;;;;;;5091320;28;20165;-67
2023/06/27 06:54:04;;;;;;;9.50;3.85;;;;;;;;;;5090778;28;20023;-66
2023/06/27 06:56:30;;;;;;;11.90;4.55;;;;;;;;;;5091370;28;20051;-67
2023/06/27 06:58:55;;;;;;;8.93;3.85;;;;;;;;;;5091022;28;20551;-67
2023/06/27 07:01:20;;;;;;;16.00;4.13;;;;;;;;;;5091685;28;20031;-66
2023/06/27 07:03:46;;;;;;;11.57;3.47;;;;;;;;;;5091959;28;20274;-67
2023/06/27 07:06:11;;;;;;;14.40;3.47;;;;;;;;;;5091499;28;20440;-66
2023/06/27 07:08:36;;;;;;;8.15;4.07;;;;;;;;;;5090772;28;20374;-67
2023/06/27 07:11:02;;;;;;;8.48;3.78;;;;;;;;;;5091175;28;20069;-66
2023/06/27 07:13:28;;;;;;;8.55;4.30;;;;;;;;;;5090949;28;20501;-66
2023/06/27 07:15:53;;;;;;;11.43;3.20;;;;;;;;;;5091400;28;20020;-67
2023/06/27 07:18:18;;;;;;;10.07;3.67;;;;;;;;;;5092335;28;20643;-66
2023/06/27 07:20:43;;;;;;;10.40;3.28;;;;;;;;;;5090831;28;20662;-68
2023/06/27 07:23:09;;;;;;;10.30;3.83;;;;;;;;;;5084875;28;20058;-68
2023/06/27 07:25:36;;;;;;;18.98;4.40;;;;;;;;;;5086125;28;20353;-68
2023/06/27 07:28:01;;;;;;;9.85;3.97;;;;;;;;;;5091368;28;20042;-67
2023/06/27 07:30:27;;;;;;;12.50;4.28;;;;;;;;;;5090879;28;20028;-67
2023/06/27 07:32:52;;;;;;;15.40;4.13;;;;;;;;;;5090519;28;20072;-68
2023/06/27 07:35:17;;;;;;;10.50;3.95;;;;;;;;;;5091311;28;20289;-68
2023/06/27 07:37:42;;;;;;;7.35;3.22;;;;;;;;;;5091442;28;20047;-67
2023/06/27 07:40:08;;;;;;;14.35;3.33;;;;;;;;;;5091510;28;20028;-67
2023/06/27 07:42:34;;;;;;;7.07;2.42;;;;;;;;;;5091977;28;20447;-67
2023/06/27 07:44:59;;;;;;;12.25;3.55;;;;;;;;;;5091308;28;20085;-67
2023/06/27 07:47:24;;;;;;;8.63;3.38;;;;;;;;;;5081217;28;20478;-68
2023/06/27 07:49:49;;;;;;;15.23;3.90;;;;;;;;;;5091621;28;20051;-67
2023/06/27 07:52:15;;;;;;;7.82;2.90;;;;;;;;;;5091650;28;20687;-67
2023/06/27 07:54:40;;;;;;;6.73;2.50;;;;;;;;;;5090792;28;20026;-67
2023/06/27 07:57:05;;;;;;;11.18;3.72;;;;;;;;;;5088529;28;20274;-67
2023/06/27 07:59:31;;;;;;;6.80;3.28;;;;;;;;;;5091769;28;20046;-67
2023/06/27 08:01:56;;;;;;;10.52;4.05;;;;;;;;;;5091030;28;20445;-67
2023/06/27 08:04:22;;;;;;;6.82;2.83;;;;;;;;;;5090111;28;20028;-66
2023/06/27 08:06:47;;;;;;;8.85;3.00;;;;;;;;;;5090504;28;20035;-65
2023/06/27 08:09:12;;;;;;;14.47;4.47;;;;;;;;;;5090277;28;20016;-66
2023/06/27 08:11:38;;;;;;;8.37;4.13;;;;;;;;;;5085716;28;20320;-66
2023/06/27 08:14:03;;;;;;;8.02;3.38;;;;;;;;;;5086536;28;20288;-68
2023/06/27 08:16:28;;;;;;;9.77;3.13;;;;;;;;;;5090681;28;20020;-66
2023/06/27 08:18:53;;;;;;;9.93;3.43;;;;;;;;;;5089172;28;20335;-66
2023/06/27 08:21:19;;;;;;;12.63;3.57;;;;;;;;;;5090773;28;20262;-67
2023/06/27 08:23:44;;;;;;;7.03;3.53;;;;;;;;;;5091085;28;20020;-67
2023/06/27 08:26:13;;;;;;;8.80;3.22;;;;;;;;;;5086492;28;20526;-67
2023/06/27 08:28:38;;;;;;;9.93;3.05;;;;;;;;;;5089314;28;20043;-66
2023/06/27 08:31:04;;;;;;;7.23;3.43;;;;;;;;;;5089902;28;20037;-68
2023/06/27 08:33:29;;;;;;;9.43;3.42;;;;;;;;;;5086392;28;20278;-69
2023/06/27 08:35:54;;;;;;;14.70;3.20;;;;;;;;;;5078811;28;20026;-68
2023/06/27 08:38:20;;;;;;;5.22;3.05;;;;;;;;;;5089759;28;20297;-69
2023/06/27 08:40:46;;;;;;;9.13;3.42;;;;;;;;;;5090045;28;20023;-68
2023/06/27 08:43:12;;;;;;;7.85;3.10;;;;;;;;;;5090268;28;20469;-68
2023/06/27 08:45:37;;;;;;;6.55;2.88;;;;;;;;;;5089866;28;20107;-70
2023/06/27 08:48:05;;;;;;;8.10;2.75;;;;;;;;;;5090796;28;20492;-68
2023/06/27 08:50:32;;;;;;;9.10;2.58;;;;;;;;;;5090561;28;20043;-68
2023/06/27 08:52:58;;;;;;;8.75;2.63;;;;;;;;;;5090078;28;20023;-68
2023/06/27 08:55:34;;;;;;;8.40;3.15;;;;;;;;;;5090027;28;20032;-67
2023/06/27 08:58:02;;;;;;;10.85;2.97;;;;;;;;;;5078064;28;20036;-68
2023/06/27 09:00:30;;;;;;;6.88;3.25;;;;;;;;;;5088659;28;20032;-66
2023/06/27 09:02:55;;;;;;;8.45;3.20;;;;;;;;;;5079042;28;20130;-68
2023/06/27 09:05:20;;;;;;;8.93;2.67;;;;;;;;;;5090194;28;20496;-68
2023/06/27 09:07:48;;;;;;;8.63;3.38;;;;;;;;;;5089142;28;20149;-67
2023/06/27 09:10:14;;;;;;;5.93;2.38;;;;;;;;;;5090286;28;20020;-67
2023/06/27 09:12:40;;;;;;;9.98;2.38;;;;;;;;;;5090124;28;20099;-68
2023/06/27 09:15:06;;;;;;;6.75;2.40;;;;;;;;;;5089409;28;20028;-68
2023/06/27 09:17:31;;;;;;;6.00;2.88;;;;;;;;;;5090504;28;20020;-68
2023/06/27 09:19:56;;;;;;;7.45;2.63;;;;;;;;;;5092619;28;20075;-68
2023/06/27 09:22:23;;;;;;;7.50;2.63;;;;;;;;;;5092118;28;20103;-67
2023/06/27 09:24:48;;;;;;;8.45;2.70;;;;;;;;;;5092564;28;20290;-67
2023/06/27 09:27:34;;;;;;;14.15;2.97;;;;;;;;;;5092185;28;20138;-67
2023/06/27 09:30:02;;;;;;;8.48;3.10;;;;;;;;;;5089700;28;20096;-66
2023/06/27 09:32:28;;;;;;;5.43;2.40;;;;;;;;;;5093421;28;20073;-66
2023/06/27 09:34:53;;;;;;;6.13;2.28;;;;;;;;;;5093198;28;20028;-66
2023/06/27 09:37:28;;;;;;;13.63;3.65;;;;;;;;;;5091523;28;20119;-67
2023/06/27 09:39:54;;;;;;;5.32;2.33;;;;;;;;;;5093100;28;20030;-67
2023/06/27 09:42:19;;;;;;;8.02;2.38;;;;;;;;;;5090862;28;20028;-66
2023/06/27 09:44:44;;;;;;;6.83;2.73;;;;;;;;;;5092826;28;20023;-66
2023/06/27 09:47:10;;;;;;;7.57;2.97;;;;;;;;;;5092275;28;20286;-67
2023/06/27 09:49:38;;;;;;;7.68;2.80;;;;;;;;;;5092311;28;20282;-66
2023/06/27 09:52:04;;;;;;;6.20;2.55;;;;;;;;;;5092517;28;20044;-67
2023/06/27 09:54:29;;;;;;;6.28;2.65;;;;;;;;;;5092825;28;20048;-66
2023/06/27 09:56:56;;;;;;;6.10;2.47;;;;;;;;;;5091828;28;20024;-66
2023/06/27 09:59:22;;;;;;;6.82;2.47;;;;;;;;;;5091117;28;20760;-67
2023/06/27 10:01:49;;;;;;;5.88;2.33;;;;;;;;;;5091377;28;20036;-67
2023/06/27 10:04:14;;;;;;;6.15;2.08;;;;;;;;;;5092550;28;20355;-67
2023/06/27 10:06:40;;;;;;;8.45;2.50;;;;;;;;;;5090973;28;20032;-65
2023/06/27 10:09:07;;;;;;;9.93;2.50;;;;;;;;;;5091921;28;20052;-66
2023/06/27 10:11:32;;;;;;;6.05;2.35;;;;;;;;;;5092686;28;20032;-66
2023/06/27 10:13:58;;;;;;;10.88;2.58;;;;;;;;;;5086077;28;20104;-67
2023/06/27 10:16:23;;;;;;;10.65;2.80;;;;;;;;;;5091888;28;20017;-66
2023/06/27 10:18:48;;;;;;;6.18;1.98;;;;;;;;;;5084442;28;20442;-66
2023/06/27 10:21:14;;;;;;;7.72;2.42;;;;;;;;;;5092687;28;20020;-67
2023/06/27 10:23:41;;;;;;;5.82;2.13;;;;;;;;;;5092528;28;20028;-68
2023/06/27 10:26:08;;;;;;;4.43;1.70;;;;;;;;;;5092568;28;20093;-67
2023/06/27 10:28:33;;;;;;;6.25;1.92;;;;;;;;;;5091643;28;20102;-66
2023/06/27 10:30:59;;;;;;;7.85;2.10;;;;;;;;;;5091372;28;20047;-67
2023/06/27 10:33:28;;;;;;;7.18;2.42;;;;;;;;;;5091540;28;20472;-67
2023/06/27 10:35:57;;;;;;;5.63;2.40;;;;;;;;;;5091826;28;20020;-66
2023/06/27 10:38:23;;;;;;;4.85;2.28;;;;;;;;;;5091471;28;20028;-67
2023/06/27 10:41:05;;;;;;;7.53;2.13;;;;;;;;;;5089498;28;20165;-66
2023/06/27 10:43:45;;;;;;;9.10;2.03;;;;;;;;;;5061709;28;20035;-66
2023/06/27 10:46:16;;;;;;;8.15;2.33;;;;;;;;;;5091571;28;20114;-66
2023/06/27 10:48:59;;;;;;;3.72;1.92;;;;;;;;;;5092530;28;20036;-66
2023/06/27 10:51:41;;;;;;;2.65;1.40;;;;;;;;;;5091197;28;20044;-66
2023/06/27 10:54:06;;;;;;;6.03;2.15;;;;;;;;;;5092552;28;20016;-67
2023/06/27 10:56:32;;;;;;;4.30;1.80;;;;;;;;;;5092190;28;20016;-65
2023/06/27 10:58:58;;;;;;;24.42;2.50;;;;;;;;;;5091606;28;20032;-67
2023/06/27 11:01:24;;;;;;;6.13;1.77;;;;;;;;;;5092132;28;20103;-67
2023/06/27 11:03:56;;;;;;;5.75;1.40;;;;;;;;;;5078531;28;20135;-68
2023/06/27 11:06:22;;;;;;;4.75;1.98;;;;;;;;;;5091484;28;20033;-66
2023/06/27 11:08:54;;;;;;;6.75;1.90;;;;;;;;;;5091433;28;20028;-66
2023/06/27 11:11:25;;;;;;;3.53;1.40;;;;;;;;;;5091053;28;20024;-67
2023/06/27 11:13:52;;;;;;;6.05;1.98;;;;;;;;;;5091540;28;20032;-67
2023/06/27 11:16:23;;;;;;;6.90;1.77;;;;;;;;;;5091772;28;20030;-66
2023/06/27 11:18:52;;;;;;;6.38;1.75;;;;;;;;;;5091593;28;20024;-65
2023/06/27 11:21:17;;;;;;;7.35;1.85;;;;;;;;;;5085041;28;20023;-66
2023/06/27 11:23:42;;;;;;;4.00;1.23;;;;;;;;;;5087138;28;20025;-66
2023/06/27 11:26:08;;;;;;;5.27;2.20;;;;;;;;;;5083310;28;20302;-65
2023/06/27 11:28:33;;;;;;;3.88;1.60;;;;;;;;;;5090998;28;20805;-66
2023/06/27 11:31:00;;;;;;;6.28;1.58;;;;;;;;;;5086467;28;20021;-66
2023/06/27 11:33:25;;;;;;;6.72;1.83;;;;;;;;;;5082675;28;20129;-66
2023/06/27 11:35:50;;;;;;;8.57;1.75;;;;;;;;;;5090333;28;20099;-67
2023/06/27 11:38:16;;;;;;;5.95;2.38;;;;;;;;;;5091727;28;20035;-65
2023/06/27 11:40:51;;;;;;;4.57;1.95;;;;;;;;;;5089775;28;20431;-66
2023/06/27 11:43:18;;;;;;;7.68;2.45;;;;;;;;;;5090935;28;20024;-66
2023/06/27 11:45:44;;;;;;;6.97;1.90;;;;;;;;;;5091155;28;20108;-66
2023/06/27 11:48:09;;;;;;;5.85;1.88;;;;;;;;;;5085264;28;20446;-65
2023/06/27 11:50:34;;;;;;;6.38;1.83;;;;;;;;;;5084260;28;20038;-66
2023/06/27 11:53:00;;;;;;;7.97;2.10;;;;;;;;;;5084914;28;20498;-67
2023/06/27 11:55:26;;;;;;;7.25;1.92;;;;;;;;;;5083345;28;20755;-65
2023/06/27 11:57:55;;;;;;;8.50;2.50;;;;;;;;;;5090923;28;20052;-65
2023/06/27 12:00:24;;;;;;;7.15;2.08;;;;;;;;;;5091284;28;20750;-67
2023/06/27 12:02:50;;;;;;;3.78;1.52;;;;;;;;;;5083210;28;20023;-65
2023/06/27 12:05:16;;;;;;;6.72;3.00;;;;;;;;;;5090200;28;20451;-66
2023/06/27 12:07:42;;;;;;;7.93;2.30;;;;;;;;;;5080695;28;20031;-69
2023/06/27 12:10:08;;;;;;;5.22;1.83;;;;;;;;;;5091371;28;20027;-66
2023/06/27 12:12:40;;;;;;;7.85;2.72;;;;;;;;;;5089439;28;20107;-65
2023/06/27 12:15:11;;;;;;;9.35;2.10;;;;;;;;;;5088370;28;20027;-67
2023/06/27 12:17:37;;;;;;;6.03;2.45;;;;;;;;;;5088292;28;20020;-66
2023/06/27 12:20:05;;;;;;;7.40;2.28;;;;;;;;;;5084626;28;20035;-67
2023/06/27 12:22:30;;;;;;;7.25;1.67;;;;;;;;;;5090940;28;20035;-67
2023/06/27 12:24:56;;;;;;;5.25;2.45;;;;;;;;;;5090577;28;20028;-67
2023/06/27 12:27:21;;;;;;;7.13;3.03;;;;;;;;;;5090136;28;20028;-67
2023/06/27 12:29:46;;;;;;;6.90;3.17;;;;;;;;;;5090309;28;20058;-67
2023/06/27 12:32:11;;;;;;;8.03;3.03;;;;;;;;;;5088812;28;20265;-68
2023/06/27 12:34:37;;;;;;;7.10;3.00;;;;;;;;;;5082394;28;20040;-68
2023/06/27 12:37:02;;;;;;;5.70;2.28;;;;;;;;;;5089122;28;20361;-67
2023/06/27 12:39:28;;;;;;;5.32;2.05;;;;;;;;;;5088413;28;20024;-66
2023/06/27 12:41:53;;;;;;;17.53;3.00;;;;;;;;;;5090827;28;20086;-67
2023/06/27 12:44:18;;;;;;;7.70;2.80;;;;;;;;;;5090206;28;20259;-66
2023/06/27 12:46:45;;;;;;;6.70;2.37;;;;;;;;;;5090046;28;20761;-67
2023/06/27 12:49:11;;;;;;;6.93;3.03;;;;;;;;;;5083321;28;20279;-65
2023/06/27 12:51:36;;;;;;;5.97;2.03;;;;;;;;;;5091501;28;20363;-66
2023/06/27 12:54:01;;;;;;;6.77;2.20;;;;;;;;;;5093599;28;20316;-65
2023/06/27 12:56:26;;;;;;;6.87;2.40;;;;;;;;;;5093788;28;20274;-67
2023/06/27 12:58:53;;;;;;;7.13;2.40;;;;;;;;;;5092477;28;20284;-66
2023/06/27 13:01:23;;;;;;;7.50;3.25;;;;;;;;;;5088661;28;20276;-67
2023/06/27 13:03:48;;;;;;;7.25;2.58;;;;;;;;;;5087729;28;20132;-66
2023/06/27 13:06:13;;;;;;;16.35;3.70;;;;;;;;;;5090372;28;20118;-66
2023/06/27 13:08:39;;;;;;;7.33;2.70;;;;;;;;;;5093841;28;20062;-65
2023/06/27 13:11:04;;;;;;;7.50;2.30;;;;;;;;;;5093711;28;20275;-67
2023/06/27 13:13:31;;;;;;;6.60;2.50;;;;;;;;;;5087970;28;20278;-66
2023/06/27 13:15:56;;;;;;;4.32;2.10;;;;;;;;;;5087799;28;20380;-67
2023/06/27 13:18:22;;;;;;;9.52;2.15;;;;;;;;;;5093561;28;20502;-65
2023/06/27 13:20:48;;;;;;;7.07;2.22;;;;;;;;;;5090888;28;20024;-66
2023/06/27 13:23:13;;;;;;;8.40;2.38;;;;;;;;;;5092980;28;20173;-66
2023/06/27 13:25:39;;;;;;;5.18;2.30;;;;;;;;;;5093316;28;20480;-68
2023/06/27 13:28:04;;;;;;;8.65;2.33;;;;;;;;;;5093646;28;20482;-66
2023/06/27 13:30:29;;;;;;;8.87;2.50;;;;;;;;;;5093157;28;20046;-67
2023/06/27 13:32:55;;;;;;;5.37;2.50;;;;;;;;;;5086739;28;20511;-66
2023/06/27 13:35:20;;;;;;;14.80;2.10;;;;;;;;;;5079575;28;20764;-67
2023/06/27 13:37:45;;;;;;;7.13;2.23;;;;;;;;;;5092002;28;20103;-67
2023/06/27 13:40:11;;;;;;;7.63;2.30;;;;;;;;;;5092482;28;20269;-67
2023/06/27 13:42:36;;;;;;;6.50;2.08;;;;;;;;;;5092770;28;20497;-68
2023/06/27 13:45:02;;;;;;;7.72;2.80;;;;;;;;;;5078754;28;20069;-66
2023/06/27 13:47:27;;;;;;;6.85;2.40;;;;;;;;;;5092997;28;20024;-66
2023/06/27 13:49:52;;;;;;;6.35;2.15;;;;;;;;;;5088305;28;20020;-67
2023/06/27 13:52:18;;;;;;;7.50;2.03;;;;;;;;;;5091998;28;20035;-67
2023/06/27 13:54:44;;;;;;;4.05;2.10;;;;;;;;;;5092238;28;20339;-66
2023/06/27 13:57:14;;;;;;;6.10;2.08;;;;;;;;;;5092113;28;20048;-66
2023/06/27 13:59:39;;;;;;;4.97;1.92;;;;;;;;;;5090678;28;20016;-67
2023/06/27 14:02:05;;;;;;;7.83;1.93;;;;;;;;;;5092349;28;20035;-67
2023/06/27 14:04:30;;;;;;;5.43;1.80;;;;;;;;;;5091588;28;20274;-67
2023/06/27 14:06:55;;;;;;;7.22;2.13;;;;;;;;;;5093066;28;20035;-66
2023/06/27 14:09:20;;;;;;;6.70;2.30;;;;;;;;;;5092235;28;20031;-66
2023/06/27 14:11:47;;;;;;;5.25;2.00;;;;;;;;;;5092925;28;20787;-67
2023/06/27 14:14:13;;;;;;;7.25;2.33;;;;;;;;;;5092336;28;20462;-66
2023/06/27 14:16:39;;;;;;;6.18;2.25;;;;;;;;;;5091688;28;20032;-66
2023/06/27 14:19:05;;;;;;;3.72;1.90;;;;;;;;;;5091919;28;20035;-67
2023/06/27 14:21:33;;;;;;;4.57;1.83;;;;;;;;;;5086343;28;20485;-67
2023/06/27 14:23:59;;;;;;;4.40;2.35;;;;;;;;;;5092589;28;20054;-66
2023/06/27 14:26:25;;;;;;;6.25;2.38;;;;;;;;;;5091368;28;20471;-66
2023/06/27 14:28:51;;;;;;;5.68;2.85;;;;;;;;;;5092419;28;20027;-67
2023/06/27 14:31:16;;;;;;;5.60;2.60;;;;;;;;;;5092283;28;20024;-67
2023/06/27 14:33:41;;;;;;;6.40;2.50;;;;;;;;;;5088374;28;20111;-67